Virtual Norwegian is not affiliated with Norwegian Air Shuttle in any way.
If you are looking for the real "Norwegian", or you wish to book Norwegian flights, please visit Norwegian.com


We use cookies to ensure you get the best experience on our website.   ACCEPT

VTBS - BKK - Bangkok (Suvarnabhumi Intl)

General Info Alternate Airport
ICAO: VTBS Elevation: 5 ft ICAO: VTBD
IATA: BKK Country: Thailand IATA: DMK
City: Bangkok Charts: Log in to view charts City: Bangkok
Name: Suvarnabhumi Intl Hub: Yes Name Don Muang Intl
General Info
ICAO: VTBS
IATA: BKK
City: Bangkok
Name: Suvarnabhumi Intl
Elevation: 5 ft
Country: Thailand
Charts: Log in to view charts
Hub: Yes
 
Alternate Airport
ICAO: VTBD
IATA: DMK
City: Bangkok
Name: Don Muang Intl

Weather
211430Z 11007KT 080V190 9999 FEW020 SCT035 BKN100 27/25 Q1013 NOSIG
Weather
211430Z 11007KT 080V190 9999 FEW020 SCT035 BKN100 27/25 Q1013 NOSIG

Runway Info
01L
Length ILS/LOC Course
3700 m 109.10 015
01R
Length ILS/LOC Course
4000 m 110.10 015
19L
Length ILS/LOC Course
4000 m 110.50 195
19R
Length ILS/LOC Course
3700 m 109.50 195

NOTAMs
NOTAMs currently unavailable.
NOTAMs
NOTAMs currently unavailable

Route map
Airport
Airport (hub)